»·PEaware :: N493W KSNA-KPDX

N493W :: KSNA-KPDX

FLIGHT INFORMATION

Flight Status: Arrived
Operator: Privately registered:
United States
More flights under this callsign
Pilot: Patrick L. (29141)
Aircraft: DASSAULT AVIATION FALCON 50
(FA50)
More flights by this aircraft type
Origin: KSNA John Wayne-Orange Co
United States
Destination: KPDX Portland Intl
United States
More flights between these airports :: More routes between these airports
Route: + HHERO3 EHF DUCKE LMT MOXEE TMBRS2
File this flight plan on PilotEdge
Remarks:
Altitude:
(Current/Filed)
32,000ft
Speed:
(Current/Filed)
480kts
Departed: 09-Jul-20 10:27 AM
Arrived: 09-Jul-20 12:28 PM
Distance/Time
Traveled:
747nm/2:01
Distance/Time
To Go:
Arrived

Flight Plot

Page will automatically refresh every two minutes.


Map Options




Map Legend


Flown Route
Filed Route
Departure Airport
Arrival Airport
Navaid (VOR, NDB)
Fix

Horizontal Profiles

Position Reports

Time Latitude Longitude Heading Altitude Ground
Speed
09-Jul-20 10:11 33.672263 -117.866661 209 63ft 0kts
09-Jul-20 10:12 33.672263 -117.866661 209 63ft 0kts
09-Jul-20 10:13 33.672263 -117.866661 209 63ft 0kts
09-Jul-20 10:14 33.672263 -117.866661 209 63ft 0kts
09-Jul-20 10:15 33.672263 -117.866661 209 63ft 0kts
09-Jul-20 10:16 33.672263 -117.866661 209 63ft 0kts
09-Jul-20 10:17 33.672263 -117.866661 209 63ft 0kts
09-Jul-20 10:18 33.672263 -117.866661 209 63ft 0kts
09-Jul-20 10:19 33.672263 -117.866661 209 63ft 0kts
09-Jul-20 10:20 33.672263 -117.866661 209 63ft 0kts
09-Jul-20 10:21 33.672253 -117.867208 297 63ft 6kts
09-Jul-20 10:22 33.674727 -117.866076 26 63ft 12kts
09-Jul-20 10:23 33.678350 -117.863785 27 63ft 19kts
09-Jul-20 10:24 33.681106 -117.864089 299 63ft 6kts
09-Jul-20 10:25 33.681279 -117.864496 297 63ft 10kts
09-Jul-20 10:26 33.663176 -117.876835 209 301ft 147kts
09-Jul-20 10:27 33.618016 -117.892195 188 1354ft 198kts
09-Jul-20 10:28 33.559824 -117.912536 224 3259ft 244kts
09-Jul-20 10:29 33.508328 -117.970915 224 5408ft 260kts
09-Jul-20 10:30 33.462646 -118.038337 240 8022ft 267kts
09-Jul-20 10:31 33.424506 -118.116521 240 10636ft 278kts
09-Jul-20 10:32 33.420915 -118.206156 283 13270ft 289kts
09-Jul-20 10:33 33.441442 -118.303205 291 15914ft 313kts
09-Jul-20 10:34 33.482060 -118.397897 296 18535ft 325kts
09-Jul-20 10:35 33.535904 -118.481501 343 21149ft 334kts
09-Jul-20 10:36 33.629703 -118.473537 4 23792ft 344kts
09-Jul-20 10:37 33.726559 -118.460232 1 25861ft 358kts
09-Jul-20 10:38 33.826707 -118.459521 357 27859ft 364kts
09-Jul-20 10:39 33.928074 -118.459657 357 29841ft 365kts
09-Jul-20 10:40 34.028210 -118.463690 350 31812ft 356kts
09-Jul-20 10:41 34.132012 -118.479771 350 31994ft 400kts
09-Jul-20 10:42 34.248220 -118.497638 350 31987ft 440kts
09-Jul-20 10:43 34.373893 -118.516994 350 32017ft 469kts
09-Jul-20 10:44 34.503457 -118.536999 350 32023ft 471kts
09-Jul-20 10:45 34.633713 -118.557210 350 32012ft 472kts
09-Jul-20 10:46 34.763756 -118.577458 350 32014ft 472kts
09-Jul-20 10:47 34.894090 -118.597811 350 32114ft 471kts
09-Jul-20 10:48 35.023036 -118.622819 331 32106ft 461kts
09-Jul-20 10:49 35.116198 -118.719317 313 32079ft 449kts
09-Jul-20 10:50 35.211568 -118.818426 315 31949ft 453kts
09-Jul-20 10:51 35.308189 -118.916900 315 31944ft 451kts
09-Jul-20 10:52 35.404379 -119.015227 315 31944ft 451kts
09-Jul-20 10:53 35.504721 -119.107367 332 31956ft 463kts
09-Jul-20 10:54 35.627697 -119.156317 337 31937ft 467kts
09-Jul-20 10:55 35.751264 -119.205124 336 31937ft 467kts
09-Jul-20 10:56 35.875245 -119.255409 336 31941ft 475kts
09-Jul-20 10:57 36.001744 -119.306936 336 31951ft 481kts
09-Jul-20 10:58 36.128207 -119.358615 336 31939ft 484kts
09-Jul-20 10:59 36.255396 -119.410738 336 30952ft 480kts
09-Jul-20 11:00 36.380530 -119.462207 337 29526ft 473kts
09-Jul-20 11:01 36.504444 -119.513382 337 28099ft 468kts
09-Jul-20 11:02 36.624109 -119.562869 337 27926ft 440kts
09-Jul-20 11:03 36.740646 -119.611443 337 27933ft 447kts
09-Jul-20 11:04 36.859685 -119.661118 336 27941ft 453kts
09-Jul-20 11:05 36.979708 -119.711321 336 27939ft 458kts
09-Jul-20 11:06 37.100932 -119.762214 334 27941ft 463kts
09-Jul-20 11:07 37.223768 -119.813975 334 27942ft 469kts
09-Jul-20 11:08 37.349063 -119.866994 334 27947ft 484kts
09-Jul-20 11:09 37.477939 -119.921650 335 27947ft 496kts
09-Jul-20 11:10 37.609162 -119.977461 335 27945ft 498kts
09-Jul-20 11:11 37.740028 -120.033352 335 27946ft 495kts
09-Jul-20 11:12 37.869764 -120.089000 335 27968ft 492kts
09-Jul-20 11:14 38.001218 -120.139454 339 27984ft 494kts
09-Jul-20 11:15 38.132600 -120.185632 338 27987ft 493kts
09-Jul-20 11:16 38.264377 -120.233119 338 27990ft 492kts
09-Jul-20 11:17 38.395503 -120.280705 338 27978ft 492kts
09-Jul-20 11:18 38.526482 -120.328404 338 28081ft 489kts
09-Jul-20 11:19 38.657640 -120.376378 338 28091ft 490kts
09-Jul-20 11:20 38.788649 -120.424470 338 28051ft 492kts
09-Jul-20 11:21 38.920070 -120.472885 338 28034ft 492kts
09-Jul-20 11:22 39.050652 -120.521123 336 28171ft 484kts
09-Jul-20 11:23 39.179076 -120.568803 336 28173ft 480kts
09-Jul-20 11:24 39.307206 -120.616600 336 28174ft 481kts
09-Jul-20 11:25 39.434945 -120.664402 335 28188ft 481kts
09-Jul-20 11:26 39.563678 -120.712762 335 28187ft 483kts
09-Jul-20 11:27 39.692976 -120.761506 335 28169ft 484kts
09-Jul-20 11:28 39.822525 -120.810537 335 28104ft 486kts
09-Jul-20 11:29 39.951812 -120.859656 335 28096ft 486kts
09-Jul-20 11:30 40.081712 -120.909210 335 28105ft 486kts
09-Jul-20 11:31 40.211098 -120.958770 335 28099ft 485kts
09-Jul-20 11:32 40.340540 -121.008551 335 28099ft 485kts
09-Jul-20 11:32 40.448621 -121.050274 335 28099ft 485kts
09-Jul-20 11:33 40.577958 -121.100383 335 28099ft 486kts
09-Jul-20 11:35 40.729319 -121.159283 335 28100ft 487kts
09-Jul-20 11:35 40.837851 -121.201691 335 28103ft 488kts
09-Jul-20 11:36 40.968180 -121.252807 335 28089ft 490kts
09-Jul-20 11:37 41.098292 -121.304042 336 28108ft 490kts
09-Jul-20 11:38 41.227483 -121.355111 336 28122ft 489kts
09-Jul-20 11:39 41.357925 -121.406911 336 28119ft 488kts
09-Jul-20 11:40 41.487946 -121.458761 336 28113ft 489kts
09-Jul-20 11:41 41.617739 -121.510731 336 28113ft 488kts
09-Jul-20 11:42 41.747849 -121.563052 336 28114ft 488kts
09-Jul-20 11:43 41.877535 -121.615427 336 28115ft 487kts
09-Jul-20 11:44 42.007302 -121.668058 335 28127ft 488kts
09-Jul-20 11:45 42.137440 -121.721060 335 28118ft 488kts
09-Jul-20 11:46 42.264382 -121.781385 331 28119ft 484kts
09-Jul-20 11:47 42.390456 -121.845576 332 28119ft 484kts
09-Jul-20 11:48 42.516485 -121.908889 332 28120ft 484kts
09-Jul-20 11:49 42.642741 -121.972447 332 28120ft 484kts
09-Jul-20 11:50 42.768381 -122.035973 332 28120ft 484kts
09-Jul-20 11:51 42.894847 -122.100199 332 28120ft 484kts
09-Jul-20 11:52 43.021108 -122.164612 334 28093ft 486kts
09-Jul-20 11:53 43.147309 -122.229262 334 28078ft 486kts
09-Jul-20 11:54 43.274030 -122.294457 334 28078ft 486kts
09-Jul-20 11:55 43.400616 -122.360018 334 28079ft 486kts
09-Jul-20 11:56 43.527214 -122.425870 334 28079ft 487kts
09-Jul-20 11:57 43.653820 -122.491921 334 28034ft 488kts
09-Jul-20 11:58 43.781290 -122.558618 334 27284ft 491kts
09-Jul-20 11:59 43.909902 -122.626319 335 25553ft 495kts
09-Jul-20 12:00 44.035182 -122.692412 334 24077ft 466kts
09-Jul-20 12:01 44.149933 -122.750563 346 24087ft 432kts
09-Jul-20 12:02 44.268158 -122.742283 1 23182ft 433kts
09-Jul-20 12:03 44.384858 -122.729912 0 21680ft 414kts
09-Jul-20 12:04 44.498591 -122.718649 0 19684ft 403kts
09-Jul-20 12:05 44.604084 -122.708144 0 17666ft 371kts
09-Jul-20 12:06 44.705381 -122.697997 1 15582ft 359kts
09-Jul-20 12:07 44.801850 -122.688260 1 13360ft 333kts
09-Jul-20 12:08 44.892832 -122.679145 2 11900ft 326kts
09-Jul-20 12:09 44.979453 -122.670375 1 11117ft 294kts
09-Jul-20 12:10 45.061053 -122.662141 1 10076ft 297kts
09-Jul-20 12:11 45.141495 -122.653918 1 8183ft 280kts
09-Jul-20 12:12 45.218258 -122.646103 1 7000ft 272kts
09-Jul-20 12:13 45.291208 -122.665686 336 7111ft 269kts
09-Jul-20 12:14 45.361800 -122.704586 337 7040ft 272kts
09-Jul-20 12:15 45.429585 -122.741784 337 5941ft 240kts
09-Jul-20 12:16 45.488997 -122.774463 337 4975ft 218kts
09-Jul-20 12:17 45.546720 -122.806299 337 4992ft 223kts
09-Jul-20 12:18 45.593001 -122.858114 302 4989ft 212kts
09-Jul-20 12:19 45.626062 -122.923417 342 4995ft 196kts
09-Jul-20 12:20 45.682330 -122.898345 25 3506ft 217kts
09-Jul-20 12:21 45.703672 -122.847090 114 2983ft 142kts
09-Jul-20 12:22 45.677887 -122.801582 135 2152ft 139kts
09-Jul-20 12:23 45.657255 -122.756974 117 1507ft 143kts
09-Jul-20 12:24 45.637658 -122.705801 118 1023ft 142kts
09-Jul-20 12:25 45.619079 -122.658309 120 713ft 135kts
09-Jul-20 12:26 45.601992 -122.614392 117 303ft 118kts
09-Jul-20 12:27 45.590021 -122.583356 120 23ft 28kts
09-Jul-20 12:28 45.587784 -122.580837 119 23ft 13kts
09-Jul-20 12:29 45.585788 -122.576799 206 23ft 13kts
09-Jul-20 12:30 45.584508 -122.575887 114 23ft 2kts
09-Jul-20 12:31 45.584289 -122.576080 293 23ft 0kts
09-Jul-20 12:32 45.584289 -122.576080 293 23ft 0kts

Navigation Log

Ident Type
Flight plan parsing failed, navigation log unavailable